Ana Sayfa
METAR-TAF:

METAR-TAF

Havaalanları :

Laoag, Filipinler

Enlem: 18-11N, Boylam: 120-32E, yükseklik: 4 m

Güncel hava durumu gözlemi

Rapor saat 08:00 UTC de 57 dakika önce yapıldı.
Rüzgar kuzeydoğudan 16 kt
Sıcaklık 29°C
Nem 58%
Basınç 1015 hPa
Görüş mesafesi 10 km veya daha fazla
1800 ft yükseklikte az bulutlu

METAR: RPLI 170800Z 04016KT 9999 FEW018 29/20 Q1015 NOSIG RMK A2997

Saat: 16:57 (08:57 UTC)

Tahmin

Rapor saat 05:00 UTC de 3 saat ve 57 dakika önce yapıldı.
Ayın 17'si saat 06 UTC'den ayın 18'si saat 06 UTC'ye kadar geçerli Tahmin
Rüzgar kuzeydoğudan 12 kt
Görüş mesafesi 10 km veya daha fazla
1800 ft yükseklikte az bulutlu
Geçici
ayın 17'si saat 06 UTC'den ayın 17'si saat 12 UTC'ye kadar
Rüzgar kuzey/kuzeydoğudan 24 kt
Geçici
ayın 17'si saat 12 UTC'den ayın 17'si saat 18 UTC'ye kadar
Rüzgar kuzeydoğudan 21 kt

TAF: RPLI 170500Z 1706/1806 05012KT 9999 FEW018 TEMPO 1706/1712 03024KT TEMPO 1712/1718 04021KT

4.000'den fazla havaalanı için hava durumu gözlemleri ve tahminleri (METAR ve TAF raporları).

Kullanılabilir istasyonlar harita üzerinde sarı ve kırmızı noktalarla gösterilir.

İstasyonun adını görmek için fareyi noktanın üzerinde gezdirin.

Sonrasında hava gözlem ve tahminlerini görmek için tıklayın.

Haritayı değiştirmek için: yaklaştırmak için siyah artı işaretli yeşil düğmeye ve uzaklaştırmak için de eksi işaretli düğmeye hızla tıklayın; bitişik haritalar için yeşil okları kullanın.


METAR-TAF: